Terminal Aerodrome Forecast
Issued by NWS

Home | Current Version | Previous Version | Text Only | Print | Product List | Glossary On
Versions: 1 2 3 4 5 6 7 8 9 10 11 12
707
FTUS42 KILM 222325
TAFCRE
TAF
KCRE 222325Z 2300/2324 10005KT P6SM SCT050 OVC250
     FM230600 05004KT P6SM BKN050
      TEMPO 2310/2312 5SM BR
     FM231200 07007KT P6SM BKN100
     FM231800 11008KT P6SM BKN250=

USA.gov is the U.S. government's official web portal to all federal, state and local government web resources and services.